createdAt,value
2023-06-25T00:00:25.364Z,1011.67
2023-06-25T00:01:26.340Z,1011.66
2023-06-25T00:02:27.240Z,1011.65
2023-06-25T00:03:33.005Z,1011.65
2023-06-25T00:04:28.906Z,1011.66
2023-06-25T00:05:29.834Z,1011.66
2023-06-25T00:06:31.460Z,1011.67
2023-06-25T00:07:31.367Z,1011.67
2023-06-25T00:08:32.297Z,1011.68
2023-06-25T00:09:33.243Z,1011.68
2023-06-25T00:10:35.165Z,1011.69
2023-06-25T00:11:34.725Z,1011.68
2023-06-25T00:12:35.651Z,1011.68
2023-06-25T00:13:36.595Z,1011.67
2023-06-25T00:14:37.341Z,1011.66
2023-06-25T00:15:38.305Z,1011.65
2023-06-25T00:16:39.264Z,1011.64
2023-06-25T00:17:40.256Z,1011.63
2023-06-25T00:18:41.429Z,1011.62
2023-06-25T00:19:42.963Z,1011.60
2023-06-25T00:20:41.899Z,1011.60
2023-06-25T00:21:44.453Z,1011.60
2023-06-25T00:22:57.558Z,1011.59
2023-06-25T00:23:45.320Z,1011.59
2023-06-25T00:24:45.976Z,1011.58
2023-06-25T00:25:45.968Z,1011.59
2023-06-25T00:26:46.436Z,1011.60
2023-06-25T00:27:47.943Z,1011.59
2023-06-25T00:28:48.433Z,1011.60
2023-06-25T00:29:48.887Z,1011.61
2023-06-25T00:30:49.852Z,1011.60
2023-06-25T00:31:50.796Z,1011.60
2023-06-25T00:32:51.753Z,1011.59
2023-06-25T00:33:52.688Z,1011.59
2023-06-25T00:34:53.639Z,1011.60
2023-06-25T00:35:55.460Z,1011.60
2023-06-25T00:36:55.974Z,1011.61
2023-06-25T00:37:57.460Z,1011.61
2023-06-25T00:38:57.460Z,1011.61
2023-06-25T00:39:58.517Z,1011.61
2023-06-25T00:40:58.455Z,1011.61
2023-06-25T00:41:58.905Z,1011.61
2023-06-25T00:43:00.144Z,1011.60
2023-06-25T00:44:00.656Z,1011.60
2023-06-25T00:45:01.568Z,1011.60
2023-06-25T00:46:02.480Z,1011.58
2023-06-25T00:47:03.403Z,1011.57
2023-06-25T00:48:05.080Z,1011.56
2023-06-25T00:49:05.953Z,1011.55
2023-06-25T00:50:05.874Z,1011.54
2023-06-25T00:51:06.796Z,1011.53
2023-06-25T00:52:07.707Z,1011.53
2023-06-25T00:53:08.773Z,1011.54
2023-06-25T00:54:09.974Z,1011.54
2023-06-25T00:55:09.953Z,1011.54
2023-06-25T00:56:11.498Z,1011.54
2023-06-25T00:57:11.392Z,1011.54
2023-06-25T00:58:12.362Z,1011.53
2023-06-25T00:59:13.293Z,1011.52
2023-06-25T01:00:16.384Z,1011.51
2023-06-25T01:01:15.089Z,1011.51
2023-06-25T01:02:17.995Z,1011.50
2023-06-25T01:03:17.023Z,1011.49
2023-06-25T01:04:17.607Z,1011.48
2023-06-25T01:05:18.509Z,1011.47
2023-06-25T01:06:19.429Z,1011.46
2023-06-25T01:07:20.516Z,1011.45
2023-06-25T01:08:22.978Z,1011.44
2023-06-25T01:09:22.519Z,1011.43
2023-06-25T01:10:23.014Z,1011.43
2023-06-25T01:11:22.948Z,1011.42
2023-06-25T01:12:23.945Z,1011.42
2023-06-25T01:13:25.482Z,1011.41
2023-06-25T01:14:25.418Z,1011.41
2023-06-25T01:15:26.346Z,1011.40
2023-06-25T01:16:27.981Z,1011.41
2023-06-25T01:17:29.519Z,1011.40
2023-06-25T01:18:28.459Z,1011.39
2023-06-25T01:19:29.965Z,1011.38
2023-06-25T01:20:29.892Z,1011.36
2023-06-25T01:21:30.888Z,1011.34
2023-06-25T01:22:31.797Z,1011.33
2023-06-25T01:23:32.711Z,1011.31
2023-06-25T01:24:34.507Z,1011.31
2023-06-25T01:25:34.707Z,1011.30
2023-06-25T01:26:35.322Z,1011.29
2023-06-25T01:27:37.086Z,1011.29
2023-06-25T01:28:36.970Z,1011.29
2023-06-25T01:29:38.485Z,1011.30
2023-06-25T01:30:38.439Z,1011.30
2023-06-25T01:31:39.388Z,1011.30
2023-06-25T01:32:40.334Z,1011.29
2023-06-25T01:33:41.211Z,1011.29
2023-06-25T01:34:42.121Z,1011.28
2023-06-25T01:35:43.065Z,1011.27
2023-06-25T01:36:43.997Z,1011.25
2023-06-25T01:37:44.933Z,1011.25
2023-06-25T01:38:46.482Z,1011.23
2023-06-25T01:39:46.388Z,1011.22
2023-06-25T01:40:47.350Z,1011.21
2023-06-25T01:41:50.000Z,1011.20
2023-06-25T01:42:48.900Z,1011.18
2023-06-25T01:43:49.849Z,1011.19
2023-06-25T01:44:50.827Z,1011.19
2023-06-25T01:45:53.507Z,1011.19
2023-06-25T01:46:52.397Z,1011.19
2023-06-25T01:47:53.425Z,1011.17
2023-06-25T01:48:53.842Z,1011.17
2023-06-25T01:49:54.780Z,1011.17
2023-06-25T01:50:55.686Z,1011.17
2023-06-25T01:51:57.475Z,1011.16
2023-06-25T01:52:57.964Z,1011.15
2023-06-25T01:53:57.897Z,1011.14
2023-06-25T01:54:58.875Z,1011.12
2023-06-25T01:55:59.814Z,1011.10
2023-06-25T01:57:00.723Z,1011.09
2023-06-25T01:58:01.630Z,1011.09
2023-06-25T01:59:03.464Z,1011.08
2023-06-25T02:00:05.011Z,1011.08
2023-06-25T02:01:04.608Z,1011.08
2023-06-25T02:02:04.559Z,1011.07
2023-06-25T02:03:05.547Z,1011.07
2023-06-25T02:04:06.991Z,1011.06
2023-06-25T02:05:08.496Z,1011.05
2023-06-25T02:06:07.400Z,1011.04
2023-06-25T02:07:10.009Z,1011.04
2023-06-25T02:08:08.903Z,1011.03
2023-06-25T02:09:10.490Z,1011.03
2023-06-25T02:10:10.985Z,1011.02
2023-06-25T02:11:11.494Z,1011.02
2023-06-25T02:12:11.977Z,1011.01
2023-06-25T02:13:11.941Z,1011.00
2023-06-25T02:14:12.892Z,1011.00
2023-06-25T02:15:13.813Z,1010.98
2023-06-25T02:16:15.507Z,1010.98
2023-06-25T02:17:17.016Z,1010.97
2023-06-25T02:18:16.533Z,1010.95
2023-06-25T02:19:16.973Z,1010.94
2023-06-25T02:20:17.993Z,1010.93
2023-06-25T02:21:17.907Z,1010.91
2023-06-25T02:22:20.491Z,1010.90
2023-06-25T02:23:19.962Z,1010.89
2023-06-25T02:24:20.386Z,1010.89
2023-06-25T02:25:21.302Z,1010.88
2023-06-25T02:26:22.311Z,1010.89
2023-06-25T02:27:25.013Z,1010.89
2023-06-25T02:28:24.475Z,1010.90
2023-06-25T02:29:24.886Z,1010.89
2023-06-25T02:30:26.490Z,1010.89
2023-06-25T02:31:26.987Z,1010.88
2023-06-25T02:32:26.988Z,1010.86
2023-06-25T02:33:29.486Z,1010.85
2023-06-25T02:34:29.008Z,1010.83
2023-06-25T02:35:29.489Z,1010.82
2023-06-25T02:36:29.463Z,1010.81
2023-06-25T02:37:30.418Z,1010.80
2023-06-25T02:38:31.351Z,1010.79
2023-06-25T02:39:32.262Z,1010.78
2023-06-25T02:40:33.991Z,1010.78
2023-06-25T02:41:33.964Z,1010.77
2023-06-25T02:42:34.872Z,1010.77
2023-06-25T02:43:37.536Z,1010.78
2023-06-25T02:44:36.990Z,1010.77
2023-06-25T02:45:37.765Z,1010.77
2023-06-25T02:46:40.081Z,1010.77
2023-06-25T02:47:39.030Z,1010.77
2023-06-25T02:48:39.936Z,1010.77
2023-06-25T02:49:41.493Z,1010.76
2023-06-25T02:50:41.634Z,1010.76
2023-06-25T02:51:44.975Z,1010.75
2023-06-25T02:52:43.514Z,1010.74
2023-06-25T02:53:43.433Z,1010.73
2023-06-25T02:54:44.344Z,1010.72
2023-06-25T02:55:45.340Z,1010.71
2023-06-25T02:56:46.265Z,1010.70
2023-06-25T02:57:47.216Z,1010.70
2023-06-25T02:58:50.069Z,1010.68
2023-06-25T02:59:50.038Z,1010.67
2023-06-25T03:00:51.510Z,1010.66
2023-06-25T03:01:50.910Z,1010.65
2023-06-25T03:02:53.579Z,1010.66
2023-06-25T03:03:53.545Z,1010.66
2023-06-25T03:04:53.458Z,1010.66
2023-06-25T03:05:55.003Z,1010.66
2023-06-25T03:06:57.548Z,1010.65
2023-06-25T03:07:55.996Z,1010.65
2023-06-25T03:08:57.989Z,1010.64
2023-06-25T03:09:57.440Z,1010.63
2023-06-25T03:10:58.434Z,1010.62
2023-06-25T03:12:00.030Z,1010.62
2023-06-25T03:12:59.920Z,1010.61
2023-06-25T03:14:01.503Z,1010.61
2023-06-25T03:15:01.507Z,1010.61
2023-06-25T03:16:02.512Z,1010.60
2023-06-25T03:17:02.918Z,1010.60
2023-06-25T03:18:05.550Z,1010.59
2023-06-25T03:19:04.602Z,1010.58
2023-06-25T03:20:05.069Z,1010.58
2023-06-25T03:21:05.996Z,1010.57
2023-06-25T03:22:06.956Z,1010.58
2023-06-25T03:23:07.745Z,1010.56
2023-06-25T03:24:08.698Z,1010.56
2023-06-25T03:25:09.609Z,1010.55
2023-06-25T03:26:10.552Z,1010.54
2023-06-25T03:27:11.488Z,1010.54
2023-06-25T03:28:12.385Z,1010.53
2023-06-25T03:29:13.337Z,1010.53
2023-06-25T03:30:15.014Z,1010.53
2023-06-25T03:31:17.624Z,1010.51
2023-06-25T03:32:17.708Z,1010.51
2023-06-25T03:33:18.025Z,1010.51
2023-06-25T03:34:17.047Z,1010.51
2023-06-25T03:35:17.983Z,1010.51
2023-06-25T03:36:18.906Z,1010.51
2023-06-25T03:37:21.532Z,1010.50
2023-06-25T03:38:20.451Z,1010.49
2023-06-25T03:39:22.005Z,1010.48
2023-06-25T03:40:21.930Z,1010.47
2023-06-25T03:41:23.526Z,1010.46
2023-06-25T03:42:25.076Z,1010.46
2023-06-25T03:43:24.034Z,1010.46
2023-06-25T03:44:25.846Z,1010.45
2023-06-25T03:45:25.771Z,1010.45
2023-06-25T03:46:26.646Z,1010.45
2023-06-25T03:47:27.769Z,1010.44
2023-06-25T03:48:28.310Z,1010.43
2023-06-25T03:49:28.778Z,1010.43
2023-06-25T03:50:29.695Z,1010.41
2023-06-25T03:51:30.622Z,1010.40
2023-06-25T03:52:34.517Z,1010.40
2023-06-25T03:53:32.425Z,1010.40
2023-06-25T03:54:33.425Z,1010.40
2023-06-25T03:55:34.019Z,1010.40
2023-06-25T03:56:39.522Z,1010.39
2023-06-25T03:57:35.485Z,1010.38
2023-06-25T03:58:36.394Z,1010.37
2023-06-25T03:59:37.304Z,1010.36
2023-06-25T04:00:38.214Z,1010.35
2023-06-25T04:01:39.216Z,1010.35
2023-06-25T04:02:40.173Z,1010.35
2023-06-25T04:03:41.182Z,1010.35
2023-06-25T04:04:42.525Z,1010.35
2023-06-25T04:05:42.490Z,1010.35
2023-06-25T04:06:45.065Z,1010.36
2023-06-25T04:07:44.523Z,1010.36
2023-06-25T04:08:44.953Z,1010.36
2023-06-25T04:09:45.851Z,1010.36
2023-06-25T04:10:46.817Z,1010.36
2023-06-25T04:11:47.820Z,1010.36
2023-06-25T04:12:48.740Z,1010.36
2023-06-25T04:13:51.629Z,1010.36
2023-06-25T04:14:52.034Z,1010.37
2023-06-25T04:15:52.019Z,1010.37
2023-06-25T04:16:51.961Z,1010.37
2023-06-25T04:17:53.540Z,1010.37
2023-06-25T04:18:53.492Z,1010.37
2023-06-25T04:19:54.399Z,1010.36
2023-06-25T04:20:57.053Z,1010.36
2023-06-25T04:21:56.540Z,1010.35
2023-06-25T04:22:57.530Z,1010.34
2023-06-25T04:23:57.449Z,1010.34
2023-06-25T04:24:59.049Z,1010.33
2023-06-25T04:25:59.033Z,1010.33
2023-06-25T04:27:00.716Z,1010.32
2023-06-25T04:28:00.664Z,1010.32
2023-06-25T04:29:03.530Z,1010.32
2023-06-25T04:30:03.061Z,1010.31
2023-06-25T04:31:03.545Z,1010.31
2023-06-25T04:32:04.717Z,1010.31
2023-06-25T04:33:04.699Z,1010.32
2023-06-25T04:34:05.626Z,1010.31
2023-06-25T04:35:06.577Z,1010.31
2023-06-25T04:36:07.485Z,1010.31
2023-06-25T04:37:09.033Z,1010.31
2023-06-25T04:38:09.544Z,1010.31
2023-06-25T04:39:12.025Z,1010.30
2023-06-25T04:40:10.489Z,1010.29
2023-06-25T04:41:11.405Z,1010.29
2023-06-25T04:42:15.308Z,1010.29
2023-06-25T04:43:13.572Z,1010.29
2023-06-25T04:44:13.567Z,1010.29
2023-06-25T04:45:15.123Z,1010.30
2023-06-25T04:46:15.073Z,1010.29
2023-06-25T04:47:16.025Z,1010.28
2023-06-25T04:48:16.455Z,1010.28
2023-06-25T04:49:17.410Z,1010.27
2023-06-25T04:50:19.062Z,1010.27
2023-06-25T04:51:19.551Z,1010.27
2023-06-25T04:52:19.963Z,1010.27
2023-06-25T04:53:21.550Z,1010.27
2023-06-25T04:54:26.056Z,1010.28
2023-06-25T04:55:21.985Z,1010.29
2023-06-25T04:56:22.902Z,1010.29
2023-06-25T04:57:24.554Z,1010.29
2023-06-25T04:58:26.085Z,1010.28
2023-06-25T04:59:25.541Z,1010.27
2023-06-25T05:00:25.971Z,1010.25
2023-06-25T05:01:28.589Z,1010.23
2023-06-25T05:02:27.494Z,1010.21
2023-06-25T05:03:28.471Z,1010.20
2023-06-25T05:04:29.386Z,1010.20
2023-06-25T05:05:30.324Z,1010.19
2023-06-25T05:06:32.034Z,1010.20
2023-06-25T05:07:32.031Z,1010.20
2023-06-25T05:08:32.983Z,1010.21
2023-06-25T05:09:33.906Z,1010.21
2023-06-25T05:10:34.842Z,1010.21
2023-06-25T05:11:37.540Z,1010.21
2023-06-25T05:12:36.510Z,1010.20
2023-06-25T05:13:38.092Z,1010.19
2023-06-25T05:14:37.985Z,1010.19
2023-06-25T05:15:39.593Z,1010.19
2023-06-25T05:16:39.508Z,1010.20
2023-06-25T05:17:40.662Z,1010.20
2023-06-25T05:18:41.050Z,1010.21
2023-06-25T05:19:41.978Z,1010.21
2023-06-25T05:20:44.557Z,1010.21
2023-06-25T05:21:43.499Z,1010.21
2023-06-25T05:22:44.399Z,1010.21
2023-06-25T05:23:46.056Z,1010.22
2023-06-25T05:24:45.966Z,1010.22
2023-06-25T05:25:46.881Z,1010.22
2023-06-25T05:26:47.912Z,1010.23
2023-06-25T05:27:49.037Z,1010.24
2023-06-25T05:28:48.997Z,1010.24
2023-06-25T05:29:50.559Z,1010.25
2023-06-25T05:30:52.091Z,1010.25
2023-06-25T05:31:51.057Z,1010.24
2023-06-25T05:32:53.560Z,1010.24
2023-06-25T05:33:52.952Z,1010.24
2023-06-25T05:34:54.555Z,1010.24
2023-06-25T05:35:54.498Z,1010.23
2023-06-25T05:36:55.426Z,1010.22
2023-06-25T05:37:56.416Z,1010.22
2023-06-25T05:38:56.878Z,1010.22
2023-06-25T05:39:57.767Z,1010.22
2023-06-25T05:40:58.724Z,1010.22
2023-06-25T05:42:00.610Z,1010.22
2023-06-25T05:43:00.542Z,1010.21
2023-06-25T05:44:01.461Z,1010.21
2023-06-25T05:45:04.076Z,1010.21
2023-06-25T05:46:03.045Z,1010.20
2023-06-25T05:47:04.130Z,1010.20
2023-06-25T05:48:07.631Z,1010.20
2023-06-25T05:49:07.065Z,1010.19
2023-06-25T05:50:06.548Z,1010.18
2023-06-25T05:51:07.522Z,1010.17
2023-06-25T05:52:07.985Z,1010.16
2023-06-25T05:53:08.885Z,1010.16
2023-06-25T05:54:10.565Z,1010.15
2023-06-25T05:55:10.551Z,1010.15
2023-06-25T05:56:13.308Z,1010.13
2023-06-25T05:57:14.056Z,1010.12
2023-06-25T05:58:12.983Z,1010.11
2023-06-25T05:59:14.564Z,1010.10
2023-06-25T06:00:14.568Z,1010.09
2023-06-25T06:01:15.047Z,1010.09
2023-06-25T06:02:15.958Z,1010.09
2023-06-25T06:03:17.011Z,1010.10
2023-06-25T06:04:20.261Z,1010.10
2023-06-25T06:05:18.163Z,1010.10
2023-06-25T06:06:19.088Z,1010.11
2023-06-25T06:07:20.084Z,1010.12
2023-06-25T06:08:21.583Z,1010.12
2023-06-25T06:09:22.068Z,1010.13
2023-06-25T06:10:22.467Z,1010.13
2023-06-25T06:11:23.389Z,1010.13
2023-06-25T06:12:24.313Z,1010.13
2023-06-25T06:13:25.259Z,1010.13
2023-06-25T06:14:26.218Z,1010.13
2023-06-25T06:15:28.071Z,1010.14
2023-06-25T06:16:29.569Z,1010.13
2023-06-25T06:17:28.521Z,1010.12
2023-06-25T06:18:29.460Z,1010.12
2023-06-25T06:19:32.101Z,1010.11
2023-06-25T06:20:32.077Z,1010.12
2023-06-25T06:21:31.980Z,1010.11
2023-06-25T06:22:32.916Z,1010.11
2023-06-25T06:23:33.854Z,1010.11
2023-06-25T06:24:34.791Z,1010.12
2023-06-25T06:25:36.130Z,1010.14
2023-06-25T06:26:36.269Z,1010.15
2023-06-25T06:27:37.225Z,1010.17
2023-06-25T06:28:38.191Z,1010.17
2023-06-25T06:29:39.132Z,1010.16
2023-06-25T06:30:40.076Z,1010.15
2023-06-25T06:31:40.984Z,1010.14
2023-06-25T06:32:42.623Z,1010.12
2023-06-25T06:33:43.065Z,1010.09
2023-06-25T06:34:44.081Z,1010.07
2023-06-25T06:35:43.980Z,1010.06
2023-06-25T06:36:44.903Z,1010.05
2023-06-25T06:37:45.882Z,1010.04
2023-06-25T06:38:48.596Z,1010.05
2023-06-25T06:39:47.917Z,1010.04
2023-06-25T06:40:48.427Z,1010.05
2023-06-25T06:41:49.365Z,1010.05
2023-06-25T06:42:50.339Z,1010.04
2023-06-25T06:43:51.264Z,1010.02
2023-06-25T06:44:52.216Z,1010.00
2023-06-25T06:45:55.100Z,1009.97
2023-06-25T06:46:54.062Z,1009.95
2023-06-25T06:47:54.995Z,1009.93
2023-06-25T06:48:55.887Z,1009.92
2023-06-25T06:49:56.821Z,1009.92
2023-06-25T06:50:58.610Z,1009.92
2023-06-25T06:51:59.376Z,1009.92
2023-06-25T06:53:00.072Z,1009.91
2023-06-25T06:53:59.999Z,1009.90
2023-06-25T06:55:01.020Z,1009.91
2023-06-25T06:56:01.478Z,1009.89
2023-06-25T06:57:02.413Z,1009.89
2023-06-25T06:58:03.348Z,1009.89
2023-06-25T06:59:05.076Z,1009.89
2023-06-25T07:00:05.042Z,1009.90
2023-06-25T07:01:05.566Z,1009.92
2023-06-25T07:02:07.184Z,1009.94
2023-06-25T07:03:08.211Z,1009.93
2023-06-25T07:04:07.605Z,1009.92
2023-06-25T07:05:08.616Z,1009.93
2023-06-25T07:06:10.100Z,1009.92
2023-06-25T07:07:10.625Z,1009.91
2023-06-25T07:08:11.081Z,1009.91
2023-06-25T07:09:12.087Z,1009.92
2023-06-25T07:10:12.584Z,1009.92
2023-06-25T07:11:12.739Z,1009.92
2023-06-25T07:12:13.156Z,1009.92
2023-06-25T07:13:14.075Z,1009.93
2023-06-25T07:14:15.000Z,1009.93
2023-06-25T07:15:16.010Z,1009.94
2023-06-25T07:16:17.098Z,1009.93
2023-06-25T07:17:17.048Z,1009.94
2023-06-25T07:18:17.946Z,1009.94
2023-06-25T07:19:21.575Z,1009.94
2023-06-25T07:20:19.565Z,1009.94
2023-06-25T07:21:22.097Z,1009.93
2023-06-25T07:22:20.999Z,1009.92
2023-06-25T07:23:21.973Z,1009.90
2023-06-25T07:24:23.604Z,1009.89
2023-06-25T07:25:23.497Z,1009.88
2023-06-25T07:26:24.414Z,1009.87
2023-06-25T07:27:25.331Z,1009.87
2023-06-25T07:28:26.284Z,1009.86
2023-06-25T07:29:29.097Z,1009.87
2023-06-25T07:30:28.030Z,1009.87
2023-06-25T07:31:28.989Z,1009.85
2023-06-25T07:32:30.616Z,1009.85
2023-06-25T07:33:30.591Z,1009.85
2023-06-25T07:34:32.096Z,1009.85
2023-06-25T07:35:32.635Z,1009.85
2023-06-25T07:36:32.529Z,1009.86
2023-06-25T07:37:35.048Z,1009.86
2023-06-25T07:38:34.602Z,1009.85
2023-06-25T07:39:34.528Z,1009.84
2023-06-25T07:40:35.473Z,1009.84
2023-06-25T07:41:36.170Z,1009.83
2023-06-25T07:42:37.102Z,1009.83
2023-06-25T07:43:40.595Z,1009.82
2023-06-25T07:44:50.273Z,1009.82
2023-06-25T07:45:40.993Z,1009.82
2023-06-25T07:46:40.202Z,1009.82
2023-06-25T07:47:44.118Z,1009.82
2023-06-25T07:48:42.058Z,1009.82
2023-06-25T07:49:43.598Z,1009.82
2023-06-25T07:50:44.146Z,1009.81
2023-06-25T07:51:44.067Z,1009.81
2023-06-25T07:52:45.034Z,1009.82
2023-06-25T07:53:45.944Z,1009.80
2023-06-25T07:54:46.871Z,1009.80
2023-06-25T07:56:01.300Z,1009.79
2023-06-25T07:56:49.581Z,1009.79
2023-06-25T07:57:49.540Z,1009.77
2023-06-25T07:58:50.470Z,1009.77
2023-06-25T07:59:53.871Z,1009.76
2023-06-25T08:00:53.129Z,1009.77
2023-06-25T08:01:54.624Z,1009.77
2023-06-25T08:02:53.647Z,1009.77
2023-06-25T08:03:54.735Z,1009.74
2023-06-25T08:04:55.660Z,1009.73
2023-06-25T08:05:55.625Z,1009.74
2023-06-25T08:06:58.175Z,1009.74
2023-06-25T08:07:59.585Z,1009.75
2023-06-25T08:08:57.992Z,1009.73
2023-06-25T08:10:00.129Z,1009.74
2023-06-25T08:10:59.730Z,1009.74
2023-06-25T08:12:00.686Z,1009.74
2023-06-25T08:13:01.705Z,1009.74
2023-06-25T08:14:02.572Z,1009.72
2023-06-25T08:15:05.145Z,1009.73
2023-06-25T08:16:04.107Z,1009.71
2023-06-25T08:17:06.630Z,1009.71
2023-06-25T08:18:05.600Z,1009.71
2023-06-25T08:19:07.114Z,1009.71
2023-06-25T08:20:07.065Z,1009.72
2023-06-25T08:21:07.989Z,1009.71
2023-06-25T08:22:08.915Z,1009.71
2023-06-25T08:23:11.625Z,1009.71
2023-06-25T08:24:10.570Z,1009.72
2023-06-25T08:25:11.598Z,1009.70
2023-06-25T08:26:12.130Z,1009.70
2023-06-25T08:27:14.116Z,1009.71
2023-06-25T08:28:15.114Z,1009.71
2023-06-25T08:29:14.513Z,1009.72
2023-06-25T08:30:16.130Z,1009.72
2023-06-25T08:31:16.183Z,1009.71
2023-06-25T08:32:16.612Z,1009.70
2023-06-25T08:33:17.517Z,1009.71
2023-06-25T08:34:18.456Z,1009.70
2023-06-25T08:35:19.426Z,1009.69
2023-06-25T08:36:20.350Z,1009.68
2023-06-25T08:37:21.276Z,1009.68
2023-06-25T08:38:23.115Z,1009.67
2023-06-25T08:39:23.621Z,1009.64
2023-06-25T08:40:23.567Z,1009.64
2023-06-25T08:41:24.497Z,1009.62
2023-06-25T08:42:25.411Z,1009.60
2023-06-25T08:43:26.341Z,1009.59
2023-06-25T08:44:29.117Z,1009.57
2023-06-25T08:45:28.622Z,1009.56
2023-06-25T08:46:28.574Z,1009.55
2023-06-25T08:47:29.486Z,1009.54
2023-06-25T08:48:31.179Z,1009.54
2023-06-25T08:49:31.067Z,1009.51
2023-06-25T08:50:33.144Z,1009.49
2023-06-25T08:51:32.073Z,1009.48
2023-06-25T08:52:32.985Z,1009.46
2023-06-25T08:53:34.635Z,1009.47
2023-06-25T08:54:39.107Z,1009.46
2023-06-25T08:55:35.238Z,1009.44
2023-06-25T08:56:35.835Z,1009.44
2023-06-25T08:57:36.239Z,1009.43
2023-06-25T08:58:38.141Z,1009.43
2023-06-25T08:59:38.067Z,1009.44
2023-06-25T09:00:39.021Z,1009.44
2023-06-25T09:01:40.705Z,1009.46
2023-06-25T09:02:41.236Z,1009.48
2023-06-25T09:03:41.217Z,1009.47
2023-06-25T09:04:42.141Z,1009.48
2023-06-25T09:05:43.634Z,1009.46
2023-06-25T09:06:59.031Z,1009.45
2023-06-25T09:07:46.189Z,1009.43
2023-06-25T09:08:45.122Z,1009.44
2023-06-25T09:09:46.048Z,1009.44
2023-06-25T09:10:46.983Z,1009.44
2023-06-25T09:11:47.886Z,1009.46
2023-06-25T09:12:48.835Z,1009.46
2023-06-25T09:13:50.633Z,1009.47
2023-06-25T09:14:50.540Z,1009.45
2023-06-25T09:15:51.459Z,1009.42
2023-06-25T09:16:52.424Z,1009.41
2023-06-25T09:17:53.488Z,1009.41
2023-06-25T09:18:53.922Z,1009.39
2023-06-25T09:19:54.811Z,1009.40
2023-06-25T09:20:56.035Z,1009.39
2023-06-25T09:21:56.577Z,1009.39
2023-06-25T09:22:57.175Z,1009.35
2023-06-25T09:23:58.676Z,1009.37
2023-06-25T09:25:00.179Z,1009.34
2023-06-25T09:25:59.058Z,1009.33
2023-06-25T09:27:00.214Z,1009.33
2023-06-25T09:28:00.704Z,1009.33
2023-06-25T09:29:01.656Z,1009.33
2023-06-25T09:30:02.601Z,1009.32
2023-06-25T09:31:03.565Z,1009.32
2023-06-25T09:32:04.493Z,1009.32
2023-06-25T09:33:05.413Z,1009.32
2023-06-25T09:34:06.323Z,1009.31
2023-06-25T09:35:07.248Z,1009.29
2023-06-25T09:36:25.443Z,1009.28
2023-06-25T09:37:09.943Z,1009.27
2023-06-25T09:38:09.852Z,1009.29
2023-06-25T09:39:10.781Z,1009.29
2023-06-25T09:40:12.635Z,1009.27
2023-06-25T09:41:12.611Z,1009.23
2023-06-25T09:42:13.520Z,1009.21
2023-06-25T09:43:16.135Z,1009.23
2023-06-25T09:44:15.037Z,1009.27
2023-06-25T09:45:16.660Z,1009.24
2023-06-25T09:46:17.176Z,1009.25
2023-06-25T09:47:17.101Z,1009.24
2023-06-25T09:48:17.982Z,1009.21
2023-06-25T09:49:19.624Z,1009.20
2023-06-25T09:50:19.537Z,1009.20
2023-06-25T09:51:20.515Z,1009.22
2023-06-25T09:52:21.412Z,1009.20
2023-06-25T09:53:23.181Z,1009.19
2023-06-25T09:54:23.154Z,1009.19
2023-06-25T09:55:25.672Z,1009.19
2023-06-25T09:56:24.630Z,1009.17
2023-06-25T09:57:25.550Z,1009.17
2023-06-25T09:58:26.463Z,1009.14
2023-06-25T09:59:28.141Z,1009.17
2023-06-25T10:00:28.154Z,1009.16
2023-06-25T10:01:29.148Z,1009.15
2023-06-25T10:02:29.780Z,1009.12
2023-06-25T10:03:30.431Z,1009.14
2023-06-25T10:04:30.901Z,1009.14
2023-06-25T10:05:31.409Z,1009.13
2023-06-25T10:06:32.318Z,1009.12
2023-06-25T10:07:33.225Z,1009.12
2023-06-25T10:08:34.148Z,1009.12
2023-06-25T10:09:35.082Z,1009.12
2023-06-25T10:10:36.222Z,1009.11
2023-06-25T10:11:37.014Z,1009.11
2023-06-25T10:12:37.455Z,1009.10
2023-06-25T10:13:38.338Z,1009.08
2023-06-25T10:14:39.266Z,1009.07
2023-06-25T10:15:40.375Z,1009.04
2023-06-25T10:16:41.022Z,1009.04
2023-06-25T10:17:42.756Z,1009.04
2023-06-25T10:18:43.639Z,1009.03
2023-06-25T10:19:43.657Z,1009.02
2023-06-25T10:20:44.574Z,1009.01
2023-06-25T10:21:46.170Z,1009.01
2023-06-25T10:22:46.082Z,1008.99
2023-06-25T10:23:47.012Z,1008.99
2023-06-25T10:24:47.940Z,1008.98
2023-06-25T10:25:48.864Z,1008.96
2023-06-25T10:26:50.645Z,1008.93
2023-06-25T10:27:50.552Z,1008.93
2023-06-25T10:28:51.487Z,1008.94
2023-06-25T10:29:52.399Z,1008.96
2023-06-25T10:30:58.270Z,1008.93
2023-06-25T10:31:54.220Z,1008.90
2023-06-25T10:32:55.149Z,1008.87
2023-06-25T10:33:56.108Z,1008.85
2023-06-25T10:34:57.019Z,1008.84
2023-06-25T10:35:57.937Z,1008.84
2023-06-25T10:36:58.859Z,1008.83
2023-06-25T10:37:59.798Z,1008.82
2023-06-25T10:39:01.650Z,1008.82
2023-06-25T10:40:01.603Z,1008.79
2023-06-25T10:41:02.487Z,1008.77
2023-06-25T10:42:04.175Z,1008.77
2023-06-25T10:43:04.153Z,1008.75
2023-06-25T10:44:05.042Z,1008.74
2023-06-25T10:45:05.970Z,1008.75
2023-06-25T10:46:06.868Z,1008.78
2023-06-25T10:47:07.839Z,1008.73
2023-06-25T10:48:09.731Z,1008.74
2023-06-25T10:49:09.596Z,1008.72
2023-06-25T10:50:11.162Z,1008.71
2023-06-25T10:51:11.656Z,1008.71
2023-06-25T10:52:11.706Z,1008.71
2023-06-25T10:53:12.127Z,1008.71
2023-06-25T10:54:13.033Z,1008.71
2023-06-25T10:55:13.936Z,1008.70
2023-06-25T10:56:15.691Z,1008.67
2023-06-25T10:57:15.630Z,1008.68
2023-06-25T10:58:17.184Z,1008.66
2023-06-25T10:59:17.684Z,1008.65
2023-06-25T11:00:17.590Z,1008.64
2023-06-25T11:01:18.537Z,1008.63
2023-06-25T11:02:22.632Z,1008.62
2023-06-25T11:03:22.302Z,1008.62
2023-06-25T11:04:20.719Z,1008.60
2023-06-25T11:05:21.612Z,1008.59
2023-06-25T11:06:23.169Z,1008.57
2023-06-25T11:07:23.424Z,1008.53
2023-06-25T11:08:23.914Z,1008.52
2023-06-25T11:09:24.822Z,1008.51
2023-06-25T11:10:25.769Z,1008.50
2023-06-25T11:11:27.691Z,1008.51
2023-06-25T11:12:27.640Z,1008.49
2023-06-25T11:13:28.553Z,1008.49
2023-06-25T11:14:29.284Z,1008.49
2023-06-25T11:15:30.239Z,1008.49
2023-06-25T11:16:31.118Z,1008.50
2023-06-25T11:17:32.052Z,1008.50
2023-06-25T11:18:33.701Z,1008.47
2023-06-25T11:19:33.618Z,1008.45
2023-06-25T11:20:34.862Z,1008.47
2023-06-25T11:21:35.482Z,1008.46
2023-06-25T11:22:36.412Z,1008.47
2023-06-25T11:23:37.335Z,1008.45
2023-06-25T11:24:38.254Z,1008.43
2023-06-25T11:25:41.331Z,1008.41
2023-06-25T11:26:40.071Z,1008.41
2023-06-25T11:27:42.713Z,1008.36
2023-06-25T11:28:41.632Z,1008.34
2023-06-25T11:29:42.175Z,1008.32
2023-06-25T11:30:42.947Z,1008.31
2023-06-25T11:31:43.856Z,1008.30
2023-06-25T11:32:46.781Z,1008.31
2023-06-25T11:33:45.670Z,1008.28
2023-06-25T11:34:46.729Z,1008.29
2023-06-25T11:35:47.159Z,1008.29
2023-06-25T11:36:48.066Z,1008.26
2023-06-25T11:37:48.990Z,1008.25
2023-06-25T11:38:49.941Z,1008.24
2023-06-25T11:39:50.907Z,1008.24
2023-06-25T11:40:52.680Z,1008.24
2023-06-25T11:41:52.628Z,1008.23
2023-06-25T11:42:53.554Z,1008.21
2023-06-25T11:43:54.511Z,1008.20
2023-06-25T11:44:55.429Z,1008.20
2023-06-25T11:45:56.376Z,1008.19
2023-06-25T11:46:57.334Z,1008.17
2023-06-25T11:47:58.301Z,1008.15
2023-06-25T11:49:00.196Z,1008.17
2023-06-25T11:50:00.161Z,1008.15
2023-06-25T11:51:01.064Z,1008.13
2023-06-25T11:52:01.979Z,1008.11
2023-06-25T11:53:03.903Z,1008.11
2023-06-25T11:54:04.536Z,1008.12
2023-06-25T11:55:04.446Z,1008.15
2023-06-25T11:56:06.266Z,1008.16
2023-06-25T11:57:06.066Z,1008.17
2023-06-25T11:58:06.994Z,1008.19
2023-06-25T11:59:08.818Z,1008.19
2023-06-25T12:00:08.703Z,1008.18
2023-06-25T12:01:10.190Z,1008.16
2023-06-25T12:02:10.808Z,1008.13
2023-06-25T12:03:11.305Z,1008.11
2023-06-25T12:04:12.299Z,1008.08
2023-06-25T12:05:12.719Z,1008.09
2023-06-25T12:06:13.647Z,1008.06
2023-06-25T12:07:15.254Z,1008.06
2023-06-25T12:08:15.173Z,1008.02
2023-06-25T12:09:16.116Z,1008.00
2023-06-25T12:10:17.016Z,1008.00
2023-06-25T12:11:17.930Z,1008.01
2023-06-25T12:12:18.835Z,1007.97
2023-06-25T12:13:19.750Z,1007.97
2023-06-25T12:14:20.716Z,1007.98
2023-06-25T12:15:21.603Z,1007.98